CheckWX is a tool to help pilots better visualize weather data.  It is not intended as a substitute for an official pre-flight weather briefing.

12:50:44 UTC

LOWW TAF
Vienna International Airport
Vienna, Austria
TAF LOWW 261115Z 2612/2718 33015G25KT CAVOK TX10/2715Z TN04/2703Z PROB40 TEMPO 2612/2616 33020G30KT 9999 SCT050 BECMG 2616/2619 33010KT 9999 BKN040 TEMPO 2708/2715 34015G25KT FEW060

Mar-26@
12:00 UTC

Mar-26 @ 12:00 UTC

Mar-26@
16:00 UTC

Mar-26 @ 16:00 UTC

TAF LOWW 261115Z 2612/2718 33015G25KT CAVOK TX10/2715Z TN04/2703Z
Wind
  • 330° at 15 KTS
  • {Gusting to 25 KTS
Cloud Levels
  • No significant clouds

Mar-26@
12:00 UTC

Mar-26 @ 12:00 UTC

Mar-26@
16:00 UTC

Mar-26 @ 16:00 UTC

PROB40 TEMPO 2612/2616 33020G30KT 9999 SCT050

Temporary - 40% Likelihood

Temporary - 40% Likelihood during this time.

Wind
  • 330° at 20 KTS
  • {Gusting to 30 KTS
Cloud Levels
  • Scattered at 5,000' AGL

Mar-26@
16:00 UTC

Mar-26 @ 16:00 UTC

Mar-27@
18:00 UTC

Mar-27 @ 18:00 UTC

BECMG 2616/2619 33010KT 9999 BKN040

Becoming

Becoming Conditions expected by Tue, Mar 26, 2019 @ 19:00 UTC

Wind
  • 330° at 10 KTS
Cloud Levels
  • Broken at 4,000' AGL

Mar-27@
08:00 UTC

Mar-27 @ 08:00 UTC

Mar-27@
15:00 UTC

Mar-27 @ 15:00 UTC

TEMPO 2708/2715 34015G25KT FEW060

Temporary

Temporary Changes expected for less than half the time period

Wind
  • 340° at 15 KTS
  • {Gusting to 25 KTS
Cloud Levels
  • Few at 6,000' AGL